Rock Grove, Illinois
Current Conditions -  °F | °C
As of 1:55 PM on Wednesday 17 Dec 2014 (Local Time) from KFEP Reporting Station
Overcast Overcast  
Wind Chill: 13°   Ceiling: 1900
Heat Index: 24°   Visibility: 10mi
Dew Point: 16°   Wind: 10mph
Humidity: 73%   Direction: 290°WNW
Pressure: 30.25"   Gusts: NA
Location:  42.4147°N, 89.4715°W
Report Text: KFEP 171955Z AUTO 29009KT 10SM OVC019 M05/M09 A3025 RMK AO2 T10461088
Loading
Personal Weather Stations






























Interactive Weather Map New forecast layout! Learn more

10-Day Weather Forecast

Advertisements
Track Severe Weather on mobile